Latest Coastal Weather Observations for Yeppoon

IDQ60701

Issued at 10:15 pm EST Tuesday 2 September 2014 (issued every 10 minutes, with the page automatically refreshed every 10 minutes)

About coastal observations | Map of coastal stations | Coastal observations for QLD | Marine services | Other Formats
Station Details ID: 033294 Name: YEPPOON THE ESPLANADE Lat: -23.14 Lon: 150.75 Height: 5.5 m
Data from the previous 72 hours. | See also: Recent months at Yeppoon
Date/Time
EST
Temp

°C
Wind Pressure Rain
since 9am
mm
Weather Cloud Vis
km
Sea
Height
m
Swell
Dir
 
Speed
knots
Gust
knots
hPa Trend Height
m
Period
s
Dir
02/10:00pm 17.9 WSW 8 11 1013.3 - 0.0 - - - - - - -
02/09:30pm 18.4 W 7 12 1013.1 - 0.0 - - - - - - -
02/09:00pm 17.7 W 3 5 1012.9 - 0.0 - - - - - - -
02/08:30pm 17.9 WSW 2 5 1012.9 - 0.0 - - - - - - -
02/08:00pm 18.9 W 4 5 1012.6 - 0.0 - - - - - - -
02/07:30pm 20.9 NNW 1 4 1012.4 - 0.0 - - - - - - -
02/07:00pm 21.3 NW 3 6 1012.0 - 0.0 - - - - - - -
02/06:30pm 22.1 N 11 13 1011.6 - 0.0 - - - - - - -
02/06:00pm 23.3 N 9 15 1011.3 - 0.0 - - - - - - -
02/05:30pm 24.1 N 11 15 1011.2 - 0.0 - - - - - - -
02/05:00pm 25.2 N 9 16 1011.0 - 0.0 - - - - - - -
02/04:30pm 25.8 N 14 18 1010.6 - 0.0 - - - - - - -
02/04:00pm 26.3 N 15 20 1010.7 - 0.0 - - - - - - -
02/03:30pm 24.3 NNE 10 13 1010.7 - 0.0 - - - - - - -
02/03:00pm 23.9 NNE 12 17 1011.0 - 0.0 - - - - - - -
02/02:30pm 24.2 NE 10 15 1011.6 - 0.0 - - - - - - -
02/02:00pm 24.1 NE 10 14 1012.3 - 0.0 - - - - - - -
02/01:30pm 24.1 NE 9 13 1012.7 - 0.0 - - - - - - -
02/01:00pm 24.3 ENE 7 9 1013.5 - 0.0 - - - - - - -
02/12:30pm 24.2 NE 8 10 1014.2 - 0.0 - - - - - - -
02/12:00pm 23.7 ENE 7 9 1014.7 - 0.0 - - - - - - -
02/11:30am 23.8 ENE 5 6 1015.2 - 0.0 - - - - - - -
02/11:00am 23.2 NE 7 9 1015.8 - 0.0 - - - - - - -
02/10:30am 22.4 NE 7 10 1016.3 - 0.0 - - - - - - -
02/10:00am 24.0 NW 6 9 1016.8 - 0.0 - - - - - - -
02/09:30am 22.3 W 8 12 1017.3 - 0.0 - - - - - - -
02/09:00am 20.9 WNW 8 15 1017.6 - 0.0 - - - - - - -
02/08:30am 18.8 W 8 12 1017.6 - 0.0 - - - - - - -
02/08:00am 17.4 W 6 9 1017.5 - 0.0 - - - - - - -
02/07:30am 15.7 W 6 8 1017.4 - 0.0 - - - - - - -
02/07:00am 13.8 WSW 5 7 1017.3 - 0.0 - - - - - - -
02/06:30am 13.1 W 6 8 1017.2 - 0.0 - - - - - - -
02/06:00am 12.6 W 7 8 1017.1 - 0.0 - - - - - - -
02/05:30am 12.9 W 8 9 1017.0 - 0.0 - - - - - - -
02/05:00am 13.1 W 7 8 1016.9 - 0.0 - - - - - - -
02/04:30am 12.9 W 5 6 1016.8 - 0.0 - - - - - - -
02/04:00am 12.6 W 4 5 1016.5 - 0.0 - - - - - - -
02/03:30am 12.8 SSW 3 4 1016.6 - 0.0 - - - - - - -
02/03:00am 12.8 WSW 3 4 1016.9 - 0.0 - - - - - - -
02/02:30am 13.3 WSW 2 4 1016.8 - 0.0 - - - - - - -
02/02:00am 13.3 W 3 4 1017.5 - 0.0 - - - - - - -
02/01:30am 13.7 SW 3 4 1017.4 - 0.0 - - - - - - -
02/01:00am 14.6 WSW 3 5 1017.6 - 0.0 - - - - - - -
02/12:30am 14.7 W 3 5 1017.9 - 0.0 - - - - - - -
02/12:00am 17.5 NNW 4 7 1017.8 - 0.0 - - - - - - -
 
Date/Time
EST
Temp

°C
Wind Pressure Rain
since 9am
mm
Weather Cloud Vis
km
Sea
Height
m
Swell
Dir
 
Speed
knots
Gust
knots
hPa Trend Height
m
Period
s
Dir
01/11:30pm 18.5 NNW 5 10 1018.0 - 0.0 - - - - - - -
01/11:00pm 19.0 N 5 7 1018.0 - 0.0 - - - - - - -
01/10:30pm 18.8 NNW 5 8 1018.2 - 0.0 - - - - - - -
01/10:00pm 18.9 NNW 5 7 1018.1 - 0.0 - - - - - - -
01/09:30pm 19.2 N 6 9 1018.2 - 0.0 - - - - - - -
01/09:00pm 18.9 NNW 4 7 1018.5 - 0.0 - - - - - - -
01/08:30pm 19.4 N 7 10 1018.2 - 0.0 - - - - - - -
01/08:00pm 19.4 N 7 11 1017.9 - 0.0 - - - - - - -
01/07:30pm 19.2 N 6 8 1018.2 - 0.0 - - - - - - -
01/07:00pm 19.6 N 8 10 1017.6 - 0.0 - - - - - - -
01/06:30pm 19.8 N 7 9 1017.4 - 0.0 - - - - - - -
01/06:00pm 20.2 N 9 10 1017.1 - 0.0 - - - - - - -
01/05:30pm 21.1 N 13 15 1016.8 - 0.0 - - - - - - -
01/05:00pm 21.4 NNE 12 14 1016.8 - 0.0 - - - - - - -
01/04:30pm 21.4 NNE 10 12 1016.7 - 0.0 - - - - - - -
01/04:00pm 21.7 NNE 11 13 1016.5 - 0.0 - - - - - - -
01/03:30pm 21.7 NNE 11 14 1016.4 - 0.0 - - - - - - -
01/03:00pm 22.1 NE 8 10 1016.8 - 0.0 - - - - - - -
01/02:30pm 22.4 NE 8 9 1017.0 - 0.0 - - - - - - -
01/02:00pm 22.2 NNE 6 7 1017.4 - 0.0 - - - - - - -
01/01:30pm 22.3 NE 7 8 1017.5 - 0.0 - - - - - - -
01/01:00pm 22.3 NE 7 8 1017.9 - 0.0 - - - - - - -
01/12:30pm 22.3 NE 6 8 1018.6 - 0.0 - - - - - - -
01/12:00pm 22.3 ENE 5 6 1019.1 - 0.0 - - - - - - -
01/11:30am 22.5 ENE 4 5 1019.2 - 0.0 - - - - - - -
01/11:00am 22.5 E 5 6 1019.1 - 0.0 - - - - - - -
01/10:30am 21.9 ENE 6 9 1019.7 - 0.0 - - - - - - -
01/10:00am 21.8 ENE 4 7 1020.0 - 0.0 - - - - - - -
01/09:30am 21.6 NNE 2 4 1020.3 - 0.0 - - - - - - -
01/09:00am 20.1 W 4 5 1020.6 - 0.0 - - - - - - -
01/08:30am 17.9 W 5 7 1020.5 - 0.0 - - - - - - -
01/08:00am 15.1 W 4 6 1020.2 - 0.0 - - - - - - -
01/07:30am 12.8 WNW 7 9 1019.7 - 0.0 - - - - - - -
01/07:00am 11.3 WSW 5 7 1019.2 - 0.0 - - - - - - -
01/06:30am 10.7 W 6 8 1018.7 - 0.0 - - - - - - -
01/06:00am 10.2 W 6 9 1018.4 - 0.0 - - - - - - -
01/05:30am 10.5 W 7 9 1018.2 - 0.0 - - - - - - -
01/05:00am 11.3 WSW 5 8 1018.0 - 0.0 - - - - - - -
01/04:30am 11.0 W 7 8 1018.0 - 0.0 - - - - - - -
01/04:00am 11.1 W 8 10 1018.3 - 0.0 - - - - - - -
01/03:30am 11.5 W 8 10 1018.2 - 0.0 - - - - - - -
01/03:00am 11.8 W 6 12 1018.0 - 0.0 - - - - - - -
01/02:30am 11.9 W 6 8 1018.2 - 0.0 - - - - - - -
01/02:00am 11.9 W 6 7 1018.2 - 0.0 - - - - - - -
01/01:30am 11.7 W 5 6 1018.3 - 0.0 - - - - - - -
01/01:00am 11.8 W 4 5 1018.3 - 0.0 - - - - - - -
01/12:30am 11.9 WSW 3 4 1018.4 - 0.0 - - - - - - -
01/12:00am 12.1 WSW 3 5 1018.7 - 0.0 - - - - - - -
 
Date/Time
EST
Temp

°C
Wind Pressure Rain
since 9am
mm
Weather Cloud Vis
km
Sea
Height
m
Swell
Dir
 
Speed
knots
Gust
knots
hPa Trend Height
m
Period
s
Dir
31/11:30pm 12.3 SW 3 5 1018.8 - 0.0 - - - - - - -
31/11:00pm 12.5 SSW 4 5 1018.9 - 0.0 - - - - - - -
31/10:30pm 12.5 S 3 4 1019.0 - 0.0 - - - - - - -
31/10:00pm 12.6 S 3 5 1018.8 - 0.0 - - - - - - -
31/09:30pm 13.0 WSW 4 7 1018.7 - 0.0 - - - - - - -
31/09:00pm 13.5 W 3 4 1018.4 - 0.0 - - - - - - -
31/08:30pm 14.2 SSW 3 5 1018.3 - 0.0 - - - - - - -
31/08:00pm 15.4 WSW 3 4 1018.0 - 0.0 - - - - - - -
31/07:30pm 18.0 NNW 4 6 1017.8 - 0.0 - - - - - - -
31/07:00pm 19.1 N 6 7 1017.1 - 0.0 - - - - - - -
31/06:30pm 19.4 N 7 9 1016.7 - 0.0 - - - - - - -
31/06:00pm 19.6 N 8 10 1016.3 - 0.0 - - - - - - -
31/05:30pm 20.6 N 10 12 1016.0 - 0.0 - - - - - - -
31/05:00pm 20.9 N 14 16 1015.7 - 0.0 - - - - - - -
31/04:30pm 21.0 N 15 17 1015.5 - 0.0 - - - - - - -
31/04:00pm 21.0 N 15 17 1015.4 - 0.0 - - - - - - -
31/03:30pm 21.4 NNE 11 13 1015.5 - 0.0 - - - - - - -
31/03:00pm 21.9 NNE 11 14 1015.5 - 0.0 - - - - - - -
31/02:30pm 22.6 ENE 8 9 1015.8 - 0.0 - - - - - - -
31/02:00pm 22.8 ENE 7 8 1016.0 - 0.0 - - - - - - -
31/01:30pm 22.3 E 8 10 1016.3 - 0.0 - - - - - - -
31/01:00pm 22.8 ENE 7 9 1016.9 - 0.0 - - - - - - -
31/12:30pm 22.7 ENE 8 10 1017.4 - 0.0 - - - - - - -
31/12:00pm 21.7 E 7 9 1017.8 - 0.0 - - - - - - -
31/11:30am 21.4 E 6 8 1018.3 - 0.0 - - - - - - -
31/11:00am 21.6 E 8 11 1018.6 - 0.0 - - - - - - -
31/10:30am 22.6 SW 3 7 1018.8 - 0.0 - - - - - - -
31/10:00am 21.8 WNW 5 8 1019.2 - 0.0 - - - - - - -
31/09:30am 20.5 WNW 6 9 1019.4 - 0.0 - - - - - - -
31/09:00am 19.6 WNW 4 7 1019.6 - 0.0 - - - - - - -
31/08:30am 18.0 W 4 6 1019.7 - 0.0 - - - - - - -
31/08:00am 16.3 WSW 5 7 1019.5 - 0.0 - - - - - - -
31/07:30am 13.6 WSW 3 4 1019.4 - 0.0 - - - - - - -
31/07:00am 11.1 WNW 6 7 1019.2 - 0.0 - - - - - - -
31/06:30am 10.3 W 5 6 1018.9 - 0.0 - - - - - - -
31/06:00am 10.4 W 1 4 1018.4 - 0.0 - - - - - - -
31/05:30am 10.4 W 5 6 1017.9 - 0.0 - - - - - - -
31/05:00am 10.5 W 5 7 1017.7 - 0.0 - - - - - - -
31/04:30am 11.1 WSW 5 6 1017.7 - 0.0 - - - - - - -
31/04:00am 11.1 W 5 7 1017.7 - 0.0 - - - - - - -
31/03:30am 11.6 W 7 8 1017.7 - 0.0 - - - - - - -
31/03:00am 11.9 W 5 7 1017.6 - 0.0 - - - - - - -
31/02:30am 12.1 W 6 7 1017.9 - 0.0 - - - - - - -
31/02:00am 11.9 W 5 7 1018.1 - 0.0 - - - - - - -
31/01:30am 12.8 WSW 4 5 1018.2 - 0.0 - - - - - - -
31/01:00am 12.4 W 4 5 1018.4 - 0.0 - - - - - - -
31/12:30am 12.9 WSW 3 4 1018.6 - 0.0 - - - - - - -
31/12:00am 13.4 SSW 4 7 1018.8 - 0.0 - - - - - - -
 
Date/Time
EST
Temp

°C
Wind Pressure Rain
since 9am
mm
Weather Cloud Vis
km
Sea
Height
m
Swell
Dir
 
Speed
knots
Gust
knots
hPa Trend Height
m
Period
s
Dir
30/11:30pm 13.2 W 4 6 1018.7 - 0.0 - - - - - - -
30/11:00pm 13.4 W 4 5 1018.7 - 0.0 - - - - - - -
30/10:30pm 13.9 WSW 1 3 1018.6 - 0.0 - - - - - - -

Other Formats:

Comma delimited format used in spreadsheet applications
http://www.bom.gov.au/fwo/IDQ60701/IDQ60701.94373.axf

JavaScript Object Notation format (JSON) in row-major order
http://www.bom.gov.au/fwo/IDQ60701/IDQ60701.94373.json